Time;durP1;ratioP1;P1;durP2;ratioP2;P2;SDS_P1;SDS_P2;PMS_P1;PMS_P2;Temp;Humidity;BMP_temperature;BMP_pressure;BME280_temperature;BME280_humidity;BME280_pressure;Samples;Min_cycle;Max_cycle;Signal;HPM_P1;HPM_P2
2022/07/06 00:01:47;;;;;;;3.60;1.15;;;14.90;99.90;;;;;;4975391;28;25069;-69
2022/07/06 00:04:12;;;;;;;4.03;1.23;;;14.80;99.90;;;;;;4979975;28;25059;-71
2022/07/06 00:06:38;;;;;;;4.95;1.20;;;14.80;99.90;;;;;;4967864;28;25051;-70
2022/07/06 00:09:05;;;;;;;4.32;1.52;;;14.70;99.90;;;;;;4978795;28;25067;-68
2022/07/06 00:11:31;;;;;;;2.67;1.25;;;14.60;99.90;;;;;;4964879;28;25070;-70
2022/07/06 00:13:57;;;;;;;7.13;1.90;;;14.60;99.90;;;;;;4980218;28;25081;-70
2022/07/06 00:16:23;;;;;;;3.85;1.60;;;14.60;99.90;;;;;;4969976;28;25083;-70
2022/07/06 00:18:49;;;;;;;2.05;1.42;;;14.70;99.90;;;;;;4967955;28;25154;-70
2022/07/06 00:21:14;;;;;;;4.60;2.05;;;14.70;99.90;;;;;;4978793;28;25058;-70
2022/07/06 00:23:40;;;;;;;6.28;2.30;;;14.70;99.90;;;;;;4971675;28;25160;-69
2022/07/06 00:26:06;;;;;;;12.52;4.10;;;14.70;99.90;;;;;;4976469;28;25152;-70
2022/07/06 00:28:31;;;;;;;9.88;4.20;;;14.60;99.90;;;;;;4981738;28;25081;-71
2022/07/06 00:30:57;;;;;;;15.80;5.47;;;14.60;99.90;;;;;;4974420;28;25075;-71
2022/07/06 00:33:22;;;;;;;16.42;5.82;;;14.50;99.90;;;;;;4972044;28;25071;-70
2022/07/06 00:35:49;;;;;;;13.40;4.93;;;14.50;99.90;;;;;;4977426;28;25129;-70
2022/07/06 00:38:14;;;;;;;16.63;6.15;;;14.50;99.90;;;;;;4978065;28;25055;-69
2022/07/06 00:40:40;;;;;;;17.70;5.85;;;14.30;99.90;;;;;;4981699;28;25062;-69
2022/07/06 00:43:06;;;;;;;14.55;5.95;;;14.30;99.90;;;;;;4980033;28;25145;-69
2022/07/06 00:45:31;;;;;;;15.63;6.05;;;14.30;99.90;;;;;;4984247;28;25073;-71
2022/07/06 00:47:57;;;;;;;15.35;5.50;;;14.30;99.90;;;;;;4988843;28;25055;-69
2022/07/06 00:50:23;;;;;;;15.00;3.30;;;14.30;99.90;;;;;;4965932;28;25122;-70
2022/07/06 00:52:51;;;;;;;8.68;3.25;;;14.30;99.90;;;;;;4971624;28;25068;-70
2022/07/06 00:55:20;;;;;;;12.50;4.90;;;14.30;99.90;;;;;;4980179;28;25099;-70
2022/07/06 00:57:46;;;;;;;10.65;4.05;;;14.40;99.90;;;;;;4970043;28;25117;-70
2022/07/06 01:00:13;;;;;;;9.23;3.28;;;14.50;99.90;;;;;;4973567;28;25180;-70
2022/07/06 01:02:40;;;;;;;5.63;2.45;;;14.60;99.90;;;;;;4973080;28;25162;-70
2022/07/06 01:05:08;;;;;;;8.05;3.00;;;14.60;99.90;;;;;;4971571;28;25059;-70
2022/07/06 01:07:34;;;;;;;7.95;2.97;;;14.60;99.90;;;;;;4966950;28;25134;-69
2022/07/06 01:10:00;;;;;;;10.30;2.30;;;14.60;99.90;;;;;;4974136;28;25076;-71
2022/07/06 01:12:26;;;;;;;5.70;1.85;;;14.70;99.90;;;;;;4963995;28;25054;-70
2022/07/06 01:14:52;;;;;;;6.85;1.90;;;14.70;99.90;;;;;;4963313;28;25071;-70
2022/07/06 01:17:18;;;;;;;4.28;1.90;;;14.70;99.90;;;;;;4970639;28;25148;-73
2022/07/06 01:19:44;;;;;;;5.18;1.65;;;14.80;99.90;;;;;;4975269;28;25149;-72
2022/07/06 01:22:10;;;;;;;7.53;1.73;;;14.70;99.90;;;;;;4973403;28;25101;-73
2022/07/06 01:24:36;;;;;;;4.22;1.30;;;14.70;99.90;;;;;;4970139;28;25113;-72
2022/07/06 01:27:04;;;;;;;4.05;1.58;;;14.70;99.90;;;;;;4970303;28;25147;-72
2022/07/06 01:29:30;;;;;;;1.55;1.15;;;14.70;99.90;;;;;;4966842;28;25165;-72
2022/07/06 01:31:55;;;;;;;6.10;1.98;;;14.80;99.90;;;;;;4965426;28;25067;-72
2022/07/06 01:34:21;;;;;;;3.25;1.08;;;14.80;99.90;;;;;;4967741;28;25126;-72
2022/07/06 01:36:47;;;;;;;4.80;1.70;;;14.80;99.90;;;;;;4971526;28;25087;-70
2022/07/06 01:39:13;;;;;;;2.28;1.15;;;14.70;99.90;;;;;;4972519;28;25064;-72
2022/07/06 01:41:39;;;;;;;3.45;1.55;;;14.70;99.90;;;;;;4982400;28;25132;-73
2022/07/06 01:44:05;;;;;;;4.50;1.30;;;14.70;99.90;;;;;;4978431;28;25101;-71
2022/07/06 01:46:31;;;;;;;3.63;1.50;;;14.60;99.90;;;;;;4965972;28;25118;-69
2022/07/06 01:48:56;;;;;;;3.67;1.27;;;14.60;99.90;;;;;;4963327;28;25138;-71
2022/07/06 01:51:22;;;;;;;3.42;1.30;;;14.60;99.90;;;;;;4966072;28;25091;-71
2022/07/06 01:53:49;;;;;;;2.55;1.48;;;14.60;99.90;;;;;;4966117;28;25073;-69
2022/07/06 01:56:15;;;;;;;4.10;1.30;;;14.50;99.90;;;;;;4972117;28;25060;-71
2022/07/06 01:58:40;;;;;;;5.38;1.60;;;14.50;99.90;;;;;;4971328;28;25076;-69
2022/07/06 02:01:12;;;;;;;7.30;1.55;;;14.40;99.90;;;;;;4967621;28;25109;-72
2022/07/06 02:03:39;;;;;;;3.72;1.33;;;14.40;99.90;;;;;;4968157;28;25056;-70
2022/07/06 02:06:05;;;;;;;3.50;1.60;;;14.40;99.90;;;;;;4972067;28;25073;-69
2022/07/06 02:08:33;;;;;;;6.22;2.05;;;14.40;99.90;;;;;;4969487;28;25056;-70
2022/07/06 02:10:58;;;;;;;3.20;1.90;;;14.30;99.90;;;;;;4976792;28;25070;-70
2022/07/06 02:13:25;;;;;;;6.88;1.83;;;14.30;99.90;;;;;;4998205;28;25042;-71
2022/07/06 02:15:50;;;;;;;4.15;1.58;;;14.20;99.90;;;;;;4985671;28;25124;-71
2022/07/06 02:18:16;;;;;;;5.43;1.55;;;14.20;99.90;;;;;;4982153;28;25082;-69
2022/07/06 02:20:42;;;;;;;2.75;1.33;;;14.20;99.90;;;;;;4980706;28;25064;-70
2022/07/06 02:23:08;;;;;;;6.18;1.90;;;14.20;99.90;;;;;;4980106;28;25054;-69
2022/07/06 02:25:34;;;;;;;5.45;1.70;;;14.20;99.90;;;;;;4964003;28;25118;-70
2022/07/06 02:27:59;;;;;;;6.07;2.17;;;14.10;99.90;;;;;;4975705;28;25058;-71
2022/07/06 02:30:25;;;;;;;5.30;1.83;;;14.00;99.90;;;;;;4982936;28;25084;-69
2022/07/06 02:32:51;;;;;;;3.15;1.65;;;13.90;99.90;;;;;;4972259;28;25062;-71
2022/07/06 02:35:16;;;;;;;2.90;1.88;;;13.90;99.90;;;;;;4980027;28;25074;-71
2022/07/06 02:37:42;;;;;;;2.95;2.10;;;14.00;99.90;;;;;;4970902;28;25134;-71
2022/07/06 02:40:08;;;;;;;7.30;2.50;;;13.90;99.90;;;;;;4968880;28;25070;-71
2022/07/06 02:42:34;;;;;;;4.53;2.10;;;13.80;99.90;;;;;;4975273;28;25065;-71
2022/07/06 02:45:00;;;;;;;3.67;1.90;;;13.80;99.90;;;;;;4968217;28;25061;-71
2022/07/06 02:47:26;;;;;;;3.38;1.80;;;13.80;99.90;;;;;;4971907;28;25060;-72
2022/07/06 02:49:52;;;;;;;2.90;1.95;;;13.80;99.90;;;;;;4969615;28;25079;-71
2022/07/06 02:52:19;;;;;;;5.47;2.20;;;13.80;99.90;;;;;;4965930;28;25062;-70
2022/07/06 02:54:44;;;;;;;7.50;2.72;;;13.80;99.90;;;;;;4975552;28;25066;-70
2022/07/06 02:57:10;;;;;;;4.63;2.47;;;13.80;99.90;;;;;;4977858;28;25053;-72
2022/07/06 02:59:36;;;;;;;9.60;2.60;;;13.80;99.90;;;;;;4971518;28;25063;-71
2022/07/06 03:02:03;;;;;;;4.30;2.40;;;13.80;99.90;;;;;;4973812;28;25060;-71
2022/07/06 03:04:29;;;;;;;4.22;1.90;;;13.80;99.90;;;;;;4995879;28;25072;-71
2022/07/06 03:06:55;;;;;;;5.05;2.20;;;13.80;99.90;;;;;;4975820;28;25114;-72
2022/07/06 03:09:20;;;;;;;4.05;2.22;;;13.80;99.90;;;;;;4967650;28;25067;-71
2022/07/06 03:11:47;;;;;;;3.72;2.10;;;13.70;99.90;;;;;;4981189;28;25066;-72
2022/07/06 03:14:13;;;;;;;5.82;2.33;;;13.80;99.90;;;;;;4967714;28;25137;-72
2022/07/06 03:16:38;;;;;;;4.25;2.10;;;13.80;99.90;;;;;;4976589;28;25069;-72
2022/07/06 03:19:04;;;;;;;3.83;2.20;;;13.70;99.90;;;;;;4970339;28;25101;-70
2022/07/06 03:21:30;;;;;;;4.68;2.00;;;13.70;99.90;;;;;;4975302;28;25105;-70
2022/07/06 03:23:55;;;;;;;4.88;2.22;;;13.70;99.90;;;;;;4972082;28;25212;-70
2022/07/06 03:26:21;;;;;;;4.20;2.25;;;13.70;99.90;;;;;;4973833;28;25079;-72
2022/07/06 03:28:47;;;;;;;5.03;2.20;;;13.70;99.90;;;;;;4972177;28;25130;-73
2022/07/06 03:31:12;;;;;;;4.30;2.47;;;13.70;99.90;;;;;;4973415;28;25115;-69
2022/07/06 03:33:39;;;;;;;4.47;2.42;;;13.70;99.90;;;;;;4965845;28;25116;-71
2022/07/06 03:36:04;;;;;;;6.38;2.65;;;13.70;99.90;;;;;;4977642;28;24997;-71
2022/07/06 03:38:30;;;;;;;5.18;2.53;;;13.80;99.90;;;;;;4977134;28;25084;-72
2022/07/06 03:40:56;;;;;;;5.53;2.20;;;13.80;99.90;;;;;;4977097;28;25055;-71
2022/07/06 03:43:22;;;;;;;6.05;2.30;;;13.80;99.90;;;;;;4978499;28;25089;-72
2022/07/06 03:45:48;;;;;;;4.28;2.20;;;13.80;99.90;;;;;;4973711;28;25085;-69
2022/07/06 03:48:13;;;;;;;2.72;1.70;;;13.70;99.90;;;;;;4975240;28;25099;-70
2022/07/06 03:50:39;;;;;;;2.88;1.90;;;13.80;99.90;;;;;;4970130;28;25139;-69
2022/07/06 03:53:05;;;;;;;5.88;2.28;;;13.70;99.90;;;;;;4975600;28;25063;-71
2022/07/06 03:55:30;;;;;;;6.68;2.30;;;13.80;99.90;;;;;;4980830;28;25143;-72
2022/07/06 03:57:56;;;;;;;4.03;2.22;;;13.80;99.90;;;;;;4972844;28;25155;-71
2022/07/06 04:00:22;;;;;;;2.28;1.88;;;13.90;99.90;;;;;;4975374;28;25089;-72
2022/07/06 04:02:47;;;;;;;2.40;2.00;;;14.00;99.90;;;;;;4968735;28;25089;-71
2022/07/06 04:05:13;;;;;;;6.65;2.30;;;14.00;99.90;;;;;;4970203;28;25073;-71
2022/07/06 04:07:39;;;;;;;6.93;2.35;;;14.00;99.90;;;;;;4968058;28;25059;-71
2022/07/06 04:10:05;;;;;;;4.65;1.80;;;14.00;99.90;;;;;;4964877;28;25111;-69
2022/07/06 04:12:31;;;;;;;3.17;1.70;;;14.10;99.90;;;;;;4976065;28;25062;-71
2022/07/06 04:14:57;;;;;;;5.72;2.38;;;14.10;99.90;;;;;;4972712;28;25071;-71
2022/07/06 04:20:09;;;;;;;5.82;1.75;;;14.10;99.90;;;;;;4977354;28;25061;-71
2022/07/06 04:22:40;;;;;;;4.85;2.22;;;14.20;99.90;;;;;;4970603;28;25079;-71
2022/07/06 04:25:06;;;;;;;2.35;1.50;;;14.30;99.90;;;;;;4974197;28;25060;-70
2022/07/06 04:27:32;;;;;;;6.78;2.15;;;14.50;99.90;;;;;;4971352;28;25082;-71
2022/07/06 04:29:57;;;;;;;5.10;1.40;;;14.50;99.90;;;;;;4987387;28;25135;-69
2022/07/06 04:32:23;;;;;;;4.97;1.77;;;14.60;99.90;;;;;;4969944;28;25068;-72
2022/07/06 04:34:48;;;;;;;3.38;1.70;;;14.70;99.90;;;;;;4981326;28;25066;-70
2022/07/06 04:37:14;;;;;;;4.30;1.60;;;14.70;99.90;;;;;;4986509;28;25074;-69
2022/07/06 04:39:39;;;;;;;2.70;1.60;;;14.80;99.90;;;;;;4980419;28;25069;-71
2022/07/06 04:42:05;;;;;;;3.25;1.42;;;14.80;99.90;;;;;;4994433;28;25055;-68
2022/07/06 04:44:31;;;;;;;3.95;1.77;;;14.90;99.90;;;;;;4997656;28;25074;-68
2022/07/06 04:46:56;;;;;;;7.60;1.80;;;15.00;99.90;;;;;;4995370;28;25078;-68
2022/07/06 04:49:22;;;;;;;5.38;2.03;;;15.00;99.90;;;;;;4985516;28;25068;-69
2022/07/06 04:51:48;;;;;;;2.95;1.70;;;15.00;99.90;;;;;;4981281;28;25080;-69
2022/07/06 04:54:13;;;;;;;4.38;3.35;;;15.00;99.90;;;;;;4969162;28;25158;-69
2022/07/06 04:56:39;;;;;;;4.78;1.90;;;15.10;99.90;;;;;;4970456;28;25105;-69
2022/07/06 04:59:04;;;;;;;4.95;1.65;;;15.20;99.90;;;;;;4975508;28;25064;-68
2022/07/06 05:01:30;;;;;;;7.63;1.77;;;15.20;99.90;;;;;;4973437;28;25092;-69
2022/07/06 05:03:55;;;;;;;5.90;2.05;;;15.30;99.90;;;;;;4981895;28;25092;-69
2022/07/06 05:06:21;;;;;;;6.00;2.25;;;15.40;99.90;;;;;;4966517;28;25161;-69
2022/07/06 05:08:47;;;;;;;4.50;1.27;;;15.30;99.90;;;;;;4979436;28;25135;-68
2022/07/06 05:11:12;;;;;;;4.65;1.48;;;15.30;99.90;;;;;;4979231;28;25093;-68
2022/07/06 05:13:38;;;;;;;4.15;1.15;;;15.10;99.90;;;;;;4966450;28;25110;-69
2022/07/06 05:16:06;;;;;;;2.47;1.15;;;15.10;99.90;;;;;;4970539;28;25159;-69
2022/07/06 05:18:32;;;;;;;3.00;1.25;;;15.00;99.90;;;;;;4963295;28;25092;-70
2022/07/06 05:20:57;;;;;;;2.75;1.48;;;15.20;99.90;;;;;;4971588;28;25161;-70
2022/07/06 05:23:23;;;;;;;2.83;1.15;;;15.20;99.90;;;;;;4963617;28;25074;-69
2022/07/06 05:25:49;;;;;;;4.72;1.55;;;15.20;99.90;;;;;;4966111;28;25075;-69
2022/07/06 05:28:14;;;;;;;5.03;1.20;;;15.30;99.90;;;;;;4968526;28;25052;-70
2022/07/06 05:30:40;;;;;;;4.20;1.15;;;15.40;99.90;;;;;;4966099;28;25132;-70
2022/07/06 05:33:05;;;;;;;2.25;1.33;;;15.60;99.90;;;;;;4959422;28;25104;-70
2022/07/06 05:35:31;;;;;;;3.97;0.80;;;15.60;99.90;;;;;;4966622;28;25064;-72
2022/07/06 05:37:57;;;;;;;4.07;0.85;;;15.60;99.90;;;;;;4968032;28;25072;-69
2022/07/06 05:40:22;;;;;;;2.55;1.02;;;15.60;99.90;;;;;;4970538;28;25093;-70
2022/07/06 05:42:48;;;;;;;5.13;1.33;;;15.60;99.90;;;;;;4988869;28;25065;-70
2022/07/06 05:45:14;;;;;;;3.53;1.20;;;15.60;99.90;;;;;;4970411;28;25164;-70
2022/07/06 05:50:24;;;;;;;6.65;1.70;;;15.80;99.90;;;;;;4967154;28;25125;-70
2022/07/06 05:53:01;;;;;;;3.63;1.00;;;15.90;99.90;;;;;;4968476;28;25243;-69
2022/07/06 05:55:27;;;;;;;3.45;1.20;;;16.00;99.90;;;;;;4974029;28;25082;-69
2022/07/06 05:57:56;;;;;;;3.63;0.98;;;16.00;99.90;;;;;;4965491;28;25061;-69
2022/07/06 06:00:23;;;;;;;2.35;1.00;;;16.10;99.90;;;;;;4974318;28;25067;-70
2022/07/06 06:02:49;;;;;;;2.55;0.98;;;16.20;99.90;;;;;;4970770;28;25057;-69
2022/07/06 06:05:15;;;;;;;2.35;1.10;;;16.20;99.90;;;;;;4959868;28;25054;-70
2022/07/06 06:07:41;;;;;;;3.40;1.05;;;16.20;99.90;;;;;;4964448;28;25051;-69
2022/07/06 06:10:12;;;;;;;3.42;1.08;;;16.30;99.90;;;;;;4972703;28;25068;-69
2022/07/06 06:12:39;;;;;;;3.17;0.90;;;16.30;99.90;;;;;;4975447;28;25054;-71
2022/07/06 06:15:05;;;;;;;2.38;0.88;;;16.40;99.90;;;;;;4982902;28;25164;-69
2022/07/06 06:17:31;;;;;;;1.67;0.90;;;16.50;99.90;;;;;;4990110;28;25103;-69
2022/07/06 06:19:58;;;;;;;2.78;0.90;;;16.70;99.90;;;;;;4980308;28;25069;-69
2022/07/06 06:22:23;;;;;;;4.85;1.25;;;16.80;99.90;;;;;;4978345;28;25096;-69
2022/07/06 06:24:49;;;;;;;3.92;1.05;;;16.90;99.90;;;;;;4970667;28;25071;-70
2022/07/06 06:27:15;;;;;;;1.45;0.63;;;17.10;99.90;;;;;;4975931;28;25088;-68
2022/07/06 06:29:41;;;;;;;3.92;0.60;;;17.10;99.90;;;;;;4974481;28;25152;-70
2022/07/06 06:32:07;;;;;;;1.10;0.50;;;17.30;99.90;;;;;;4973998;28;25059;-70
2022/07/06 06:34:33;;;;;;;28.08;4.20;;;17.10;99.90;;;;;;4991181;28;25052;-70
2022/07/06 06:36:59;;;;;;;2.53;0.60;;;17.00;99.90;;;;;;4974023;28;25056;-69
2022/07/06 06:39:25;;;;;;;3.97;0.80;;;17.00;99.90;;;;;;4978378;28;25072;-70
2022/07/06 06:41:51;;;;;;;1.55;0.70;;;17.10;99.90;;;;;;4973889;28;25095;-70
2022/07/06 06:44:17;;;;;;;1.90;0.57;;;17.50;99.90;;;;;;4976588;28;25068;-69
2022/07/06 06:46:43;;;;;;;2.92;0.90;;;17.70;99.90;;;;;;4988640;28;25139;-69
2022/07/06 06:49:10;;;;;;;3.38;0.93;;;17.70;99.90;;;;;;4973556;28;25094;-69
2022/07/06 06:51:37;;;;;;;2.55;0.60;;;17.60;99.90;;;;;;4972961;28;25093;-69
2022/07/06 06:54:03;;;;;;;1.05;0.57;;;17.60;99.90;;;;;;4971060;28;25162;-70
2022/07/06 06:56:28;;;;;;;2.63;1.08;;;17.70;99.90;;;;;;4970972;28;25084;-70
2022/07/06 06:58:54;;;;;;;1.45;0.60;;;18.10;99.90;;;;;;4978197;28;25101;-70
2022/07/06 07:01:20;;;;;;;1.77;0.70;;;18.00;99.90;;;;;;4966100;28;25055;-71
2022/07/06 07:03:45;;;;;;;4.22;0.68;;;18.20;99.90;;;;;;4978945;28;25059;-70
2022/07/06 07:06:13;;;;;;;1.17;0.75;;;18.30;99.90;;;;;;4964761;28;25129;-69
2022/07/06 07:08:38;;;;;;;4.05;0.93;;;18.50;99.90;;;;;;4974709;28;25097;-70
2022/07/06 07:11:04;;;;;;;2.25;0.50;;;18.40;99.90;;;;;;4972957;28;25068;-69
2022/07/06 07:13:30;;;;;;;1.25;0.80;;;18.60;99.90;;;;;;4979066;28;25062;-67
2022/07/06 07:15:55;;;;;;;3.05;0.82;;;18.80;99.90;;;;;;4983486;28;25067;-69
2022/07/06 07:18:21;;;;;;;4.53;1.00;;;18.30;99.90;;;;;;4978117;28;25114;-69
2022/07/06 07:20:46;;;;;;;1.95;0.65;;;18.40;99.90;;;;;;4983731;28;25125;-68
2022/07/06 07:23:12;;;;;;;0.70;0.50;;;18.70;99.90;;;;;;4976997;28;25062;-69
2022/07/06 07:25:40;;;;;;;1.60;0.70;;;18.60;99.90;;;;;;4982202;28;25067;-70
2022/07/06 07:28:06;;;;;;;2.03;0.60;;;19.00;99.90;;;;;;4991359;28;25071;-73
2022/07/06 07:30:32;;;;;;;3.97;0.75;;;18.80;99.90;;;;;;5004374;28;25127;-73
2022/07/06 07:33:00;;;;;;;0.77;0.50;;;18.80;99.90;;;;;;4977971;28;25054;-72
2022/07/06 07:35:26;;;;;;;2.58;0.43;;;19.30;99.20;;;;;;4970596;28;25061;-70
2022/07/06 07:37:51;;;;;;;3.72;0.70;;;19.20;97.10;;;;;;4973614;28;25071;-70
2022/07/06 07:40:17;;;;;;;2.28;0.63;;;19.00;98.50;;;;;;4975343;28;25152;-72
2022/07/06 07:42:43;;;;;;;1.92;0.75;;;18.90;98.40;;;;;;4975810;28;25127;-72
2022/07/06 07:45:10;;;;;;;3.83;0.82;;;19.10;97.50;;;;;;4975135;28;25062;-72
2022/07/06 07:47:35;;;;;;;5.90;0.93;;;19.20;98.90;;;;;;4975813;28;25051;-72
2022/07/06 07:50:01;;;;;;;2.92;0.80;;;19.90;97.60;;;;;;4981974;28;25114;-72
2022/07/06 07:52:26;;;;;;;2.15;0.75;;;20.30;91.90;;;;;;4983550;28;25080;-70
2022/07/06 07:54:52;;;;;;;2.63;0.60;;;19.70;88.00;;;;;;4994088;28;25069;-73
2022/07/06 07:57:17;;;;;;;1.80;0.47;;;19.00;85.80;;;;;;4991954;28;25067;-71
2022/07/06 07:59:43;;;;;;;16.30;1.75;;;19.40;90.90;;;;;;4979382;28;25082;-73
2022/07/06 08:02:09;;;;;;;4.97;0.80;;;19.90;89.00;;;;;;4981333;28;25054;-71
2022/07/06 08:04:34;;;;;;;3.00;0.60;;;20.10;68.30;;;;;;4974542;28;25149;-72
2022/07/06 08:07:00;;;;;;;1.27;0.80;;;20.00;61.50;;;;;;4978384;28;25055;-73
2022/07/06 08:09:26;;;;;;;3.00;0.60;;;20.20;64.20;;;;;;4974059;28;25072;-72
2022/07/06 08:11:51;;;;;;;2.03;0.60;;;19.70;39.20;;;;;;4977706;28;25071;-71
2022/07/06 08:14:17;;;;;;;2.38;0.40;;;19.30;33.80;;;;;;4973009;28;25060;-71
2022/07/06 08:16:43;;;;;;;2.40;0.35;;;19.50;38.00;;;;;;4992369;28;25127;-72
2022/07/06 08:19:09;;;;;;;0.88;0.60;;;19.30;28.70;;;;;;4972406;28;25099;-72
2022/07/06 08:21:35;;;;;;;2.20;0.50;;;19.50;33.80;;;;;;4995329;28;25110;-73
2022/07/06 08:24:01;;;;;;;2.75;0.30;;;20.00;33.50;;;;;;4978802;28;25100;-73
2022/07/06 08:26:27;;;;;;;1.05;0.47;;;20.40;35.10;;;;;;4975981;28;25074;-71
2022/07/06 08:28:53;;;;;;;4.70;0.88;;;21.00;43.70;;;;;;4973518;28;24791;-72
2022/07/06 08:31:19;;;;;;;0.35;0.30;;;20.90;25.70;;;;;;4977733;28;25063;-72
2022/07/06 08:33:44;;;;;;;2.97;0.85;;;20.70;29.80;;;;;;4976679;28;25063;-73
2022/07/06 08:36:10;;;;;;;1.55;0.40;;;20.60;27.50;;;;;;4975336;28;25155;-72
2022/07/06 08:38:36;;;;;;;1.98;0.50;;;21.00;20.80;;;;;;4988780;28;25050;-72
2022/07/06 08:41:05;;;;;;;0.50;0.20;;;20.90;10.70;;;;;;4975973;28;25081;-72
2022/07/06 08:43:32;;;;;;;0.60;0.40;;;21.10;6.50;;;;;;4975672;28;25087;-70
2022/07/06 08:45:59;;;;;;;0.70;0.50;;;20.60;11.90;;;;;;4973332;28;25074;-71
2022/07/06 08:48:27;;;;;;;1.50;0.52;;;20.20;7.70;;;;;;4978594;28;25125;-71
2022/07/06 08:50:54;;;;;;;2.78;0.60;;;20.20;15.60;;;;;;4975571;28;25165;-71
2022/07/06 08:53:21;;;;;;;3.72;0.40;;;20.40;16.80;;;;;;4988901;28;25121;-73
2022/07/06 08:55:49;;;;;;;2.30;0.47;;;19.80;21.90;;;;;;4981048;28;25070;-71
2022/07/06 08:58:14;;;;;;;1.50;0.40;;;19.50;22.20;;;;;;4997803;28;25122;-71
2022/07/06 09:00:42;;;;;;;2.05;0.40;;;19.50;31.80;;;;;;4986347;28;25173;-72
2022/07/06 09:03:11;;;;;;;0.90;0.40;;;19.90;29.80;;;;;;4974958;28;25086;-71
2022/07/06 09:05:37;;;;;;;1.55;0.50;;;20.50;22.90;;;;;;4979120;28;25071;-73
2022/07/06 09:08:03;;;;;;;1.10;0.50;;;20.90;9.60;;;;;;4979469;28;25119;-72
2022/07/06 09:10:29;;;;;;;2.95;0.50;;;21.00;1.00;;;;;;4976720;28;25163;-72
2022/07/06 09:13:03;;;;;;;4.85;0.70;;;21.20;1.00;;;;;;4980385;28;25057;-72
2022/07/06 09:15:29;;;;;;;2.00;0.40;;;21.40;1.00;;;;;;4981118;28;25070;-72
2022/07/06 09:17:57;;;;;;;5.18;0.40;;;21.40;1.00;;;;;;4969361;28;25113;-72
2022/07/06 09:20:23;;;;;;;1.25;0.30;;;21.20;1.00;;;;;;4970850;28;25072;-73
2022/07/06 09:22:48;;;;;;;2.92;0.50;;;21.40;1.00;;;;;;4980449;28;25137;-72
2022/07/06 09:25:15;;;;;;;0.68;0.45;;;21.20;1.00;;;;;;4975000;28;25135;-72
2022/07/06 09:27:47;;;;;;;0.43;0.20;;;21.00;1.00;;;;;;4975666;28;25123;-72
2022/07/06 09:30:14;;;;;;;0.30;0.27;;;20.70;1.00;;;;;;4984716;28;25080;-72
2022/07/06 09:32:46;;;;;;;2.60;0.52;;;20.70;3.80;;;;;;4980704;28;25068;-70
2022/07/06 09:35:36;;;;;;;0.50;0.45;;;20.40;1.00;;;;;;4987668;28;25075;-71
2022/07/06 09:38:08;;;;;;;1.00;0.70;;;20.70;1.00;;;;;;4974193;28;25079;-73
2022/07/06 09:40:36;;;;;;;;;;;21.00;1.10;;;;;;4982910;28;25126;-73
2022/07/06 09:43:08;;;;;;;2.67;0.40;;;21.40;1.00;;;;;;4979774;28;24149;-72
2022/07/06 09:45:36;;;;;;;3.58;0.60;;;21.10;1.00;;;;;;4982815;28;25080;-73
2022/07/06 09:48:28;;;;;;;1.17;0.40;;;21.20;1.00;;;;;;4977739;28;25065;-72
2022/07/06 09:50:59;;;;;;;1.85;0.73;;;21.30;1.00;;;;;;4971602;28;25109;-71
2022/07/06 09:53:26;;;;;;;2.58;0.60;;;20.70;1.00;;;;;;4979564;28;25102;-74
2022/07/06 09:56:01;;;;;;;2.40;0.75;;;20.80;1.00;;;;;;4970843;28;25052;-72
2022/07/06 09:58:27;;;;;;;0.68;0.60;;;20.90;1.00;;;;;;4981016;28;25075;-71
2022/07/06 10:00:53;;;;;;;1.27;0.60;;;20.70;1.00;;;;;;4976308;28;25159;-70
2022/07/06 10:03:19;;;;;;;9.07;1.17;;;20.70;4.80;;;;;;4985841;28;25070;-73
2022/07/06 10:05:47;;;;;;;2.83;0.47;;;20.20;4.20;;;;;;4985861;28;25135;-69
2022/07/06 10:08:13;;;;;;;1.25;0.70;;;20.00;12.60;;;;;;4999482;28;25061;-71
2022/07/06 10:10:40;;;;;;;1.58;0.52;;;20.50;13.00;;;;;;4993297;28;25102;-73
2022/07/06 10:13:08;;;;;;;0.93;0.60;;;20.90;1.00;;;;;;5006976;28;25051;-73
2022/07/06 10:15:35;;;;;;;2.15;0.68;;;20.90;1.00;;;;;;4994818;28;25053;-72
2022/07/06 10:18:04;;;;;;;2.00;0.90;;;20.80;1.00;;;;;;5000372;28;25052;-71
2022/07/06 10:20:32;;;;;;;4.80;1.15;;;21.20;1.00;;;;;;4988202;28;25065;-73
2022/07/06 10:23:01;;;;;;;1.35;0.82;;;21.90;1.00;;;;;;4995506;28;25160;-72
2022/07/06 10:25:27;;;;;;;2.65;0.95;;;22.20;1.00;;;;;;4993137;28;25134;-72
2022/07/06 10:27:54;;;;;;;4.88;0.65;;;22.10;1.00;;;;;;4981866;28;25066;-71
2022/07/06 10:30:20;;;;;;;2.28;0.75;;;21.80;1.00;;;;;;4977115;28;25099;-72
2022/07/06 10:32:49;;;;;;;1.15;0.80;;;21.70;1.00;;;;;;4974285;28;25056;-72
2022/07/06 10:35:18;;;;;;;1.45;0.55;;;21.70;1.00;;;;;;4974153;28;25062;-74
2022/07/06 10:37:44;;;;;;;3.85;1.95;;;21.40;1.00;;;;;;4978991;28;25061;-70
2022/07/06 10:42:59;;;;;;;1.25;0.80;;;22.10;1.00;;;;;;4978580;28;25057;-72
2022/07/06 10:45:27;;;;;;;5.45;1.35;;;21.80;1.00;;;;;;4977370;28;25054;-72
2022/07/06 10:48:11;;;;;;;1.58;0.70;;;22.30;1.00;;;;;;4961660;28;25069;-73
2022/07/06 10:50:41;;;;;;;2.67;0.73;;;22.70;1.00;;;;;;4981556;28;25093;-72
2022/07/06 10:53:12;;;;;;;5.65;0.80;;;22.90;1.00;;;;;;4980167;28;25105;-72
2022/07/06 10:55:50;;;;;;;3.13;0.80;;;23.20;1.00;;;;;;4981508;28;25137;-72
2022/07/06 10:58:35;;;;;;;3.38;0.95;;;23.20;1.00;;;;;;4971258;28;25052;-72
2022/07/06 11:01:01;;;;;;;1.90;0.70;;;23.50;1.00;;;;;;4970849;28;25148;-73
2022/07/06 11:03:48;;;;;;;2.92;0.68;;;23.60;1.00;;;;;;4982518;28;25131;-72
2022/07/06 11:06:19;;;;;;;3.60;1.02;;;24.10;1.00;;;;;;4972566;28;25070;-72
2022/07/06 11:08:57;;;;;;;3.20;0.85;;;24.00;1.00;;;;;;4977809;28;25076;-70
2022/07/06 11:11:38;;;;;;;3.00;0.90;;;23.30;1.00;;;;;;4983273;28;25074;-71
2022/07/06 11:14:15;;;;;;;6.03;0.55;;;22.50;1.00;;;;;;4975787;28;25065;-72
2022/07/06 11:17:01;;;;;;;1.15;0.82;;;23.10;1.00;;;;;;4983179;28;25106;-73
2022/07/06 11:19:28;;;;;;;6.18;0.90;;;23.80;1.00;;;;;;4995779;28;25070;-73
2022/07/06 11:22:04;;;;;;;2.70;1.10;;;23.70;1.00;;;;;;4985739;28;25123;-72
2022/07/06 11:24:32;;;;;;;1.00;0.60;;;24.20;1.00;;;;;;4979532;28;25058;-71
2022/07/06 11:26:59;;;;;;;6.97;1.33;;;24.40;1.00;;;;;;4984666;28;25093;-70
2022/07/06 11:29:27;;;;;;;7.60;0.90;;;24.20;1.00;;;;;;4982561;28;25072;-70
2022/07/06 11:31:59;;;;;;;1.58;0.70;;;23.60;1.00;;;;;;4974412;28;25059;-70
2022/07/06 11:34:29;;;;;;;3.20;1.13;;;23.30;1.00;;;;;;4987495;28;25075;-72
2022/07/06 11:36:57;;;;;;;2.78;0.85;;;23.80;1.00;;;;;;4964863;28;25075;-69
2022/07/06 11:39:23;;;;;;;3.17;1.00;;;24.30;1.00;;;;;;4971233;28;25099;-70
2022/07/06 11:41:48;;;;;;;2.20;0.52;;;24.30;1.00;;;;;;4970457;28;25446;-72
2022/07/06 11:44:14;;;;;;;6.03;0.80;;;24.70;1.00;;;;;;4976454;28;25063;-73
2022/07/06 11:46:40;;;;;;;8.27;1.20;;;24.30;1.00;;;;;;4977236;28;25099;-72
2022/07/06 11:49:07;;;;;;;1.98;0.60;;;23.80;1.00;;;;;;4968428;28;25065;-69
2022/07/06 11:51:38;;;;;;;2.95;0.70;;;23.70;1.00;;;;;;4976334;28;25121;-71
2022/07/06 11:54:13;;;;;;;4.35;0.70;;;24.10;1.00;;;;;;4972751;28;25060;-70
2022/07/06 11:56:51;;;;;;;1.50;0.80;;;23.80;1.00;;;;;;4975641;28;25064;-73
2022/07/06 11:59:30;;;;;;;2.45;0.80;;;24.10;1.00;;;;;;4979601;28;25067;-74
2022/07/06 12:02:04;;;;;;;1.92;0.85;;;24.70;1.00;;;;;;4977722;28;25115;-72
2022/07/06 12:04:31;;;;;;;2.47;0.93;;;25.00;1.00;;;;;;4973904;28;25105;-70
2022/07/06 12:07:02;;;;;;;1.95;0.85;;;24.90;1.00;;;;;;4976639;28;25060;-74
2022/07/06 12:09:35;;;;;;;3.15;0.90;;;24.50;1.00;;;;;;4975369;28;25094;-75
2022/07/06 12:12:02;;;;;;;1.17;0.70;;;24.60;1.00;;;;;;4974647;28;25172;-71
2022/07/06 12:14:29;;;;;;;2.35;0.85;;;24.80;1.00;;;;;;4968151;28;25061;-73
2022/07/06 12:16:55;;;;;;;1.75;0.88;;;24.90;1.00;;;;;;4972919;28;25059;-71
2022/07/06 12:19:23;;;;;;;2.08;0.68;;;25.00;1.00;;;;;;4978533;28;25135;-72
2022/07/06 12:21:51;;;;;;;2.85;0.80;;;24.70;1.00;;;;;;4987291;28;25042;-75
2022/07/06 12:24:27;;;;;;;2.13;0.98;;;24.30;1.00;;;;;;4980632;28;25084;-72
2022/07/06 12:26:54;;;;;;;1.90;0.90;;;24.60;1.00;;;;;;4990153;28;25081;-73
2022/07/06 12:29:21;;;;;;;1.80;0.70;;;24.10;1.00;;;;;;4976641;28;24895;-74
2022/07/06 12:31:49;;;;;;;3.22;0.88;;;24.10;1.00;;;;;;4988144;28;25097;-73
2022/07/06 12:34:20;;;;;;;2.40;0.80;;;24.40;1.00;;;;;;4975665;28;25118;-72
2022/07/06 12:36:49;;;;;;;1.98;0.80;;;24.40;1.00;;;;;;4992374;28;25152;-71
2022/07/06 12:39:17;;;;;;;1.05;0.65;;;23.70;1.00;;;;;;4988065;28;25084;-70
2022/07/06 12:41:53;;;;;;;3.20;0.90;;;23.60;1.00;;;;;;4987064;28;25071;-72
2022/07/06 12:44:28;;;;;;;1.98;0.80;;;23.80;1.00;;;;;;4984713;28;25073;-71
2022/07/06 12:47:08;;;;;;;2.72;0.90;;;23.60;1.00;;;;;;4989492;28;25055;-73
2022/07/06 12:49:36;;;;;;;2.38;1.05;;;23.30;1.00;;;;;;4996625;28;25098;-74
2022/07/06 12:52:06;;;;;;;5.00;0.98;;;23.50;1.00;;;;;;5004806;28;25058;-74
2022/07/06 12:54:40;;;;;;;1.08;0.82;;;23.30;1.00;;;;;;4997156;28;25069;-73
2022/07/06 12:57:25;;;;;;;3.47;1.00;;;23.00;1.00;;;;;;4995118;28;25046;-72
2022/07/06 12:59:54;;;;;;;1.63;0.80;;;23.10;1.00;;;;;;4996176;28;25070;-73